Table Grove, Illinois
Current Conditions -  °F | °C
As of 7:15 PM on Friday 28 Nov 2014 (Local Time) from KMQB Reporting Station
Clear Clear  
Wind Chill: 26°   Ceiling: Unl
Heat Index: 35°   Visibility: 10mi
Dew Point: 32°   Wind: 12mph
Humidity: 90%   Direction: 150°SSE
Pressure: 29.88"   Gusts: NA
Location:  40.36°N, 90.43°W
Report Text: KMQB 290115Z AUTO 15010KT 10SM CLR 02/00 A2988 RMK AO2 T00150000
Loading
Personal Weather Stations






























Interactive Weather Map New forecast layout! Learn more

10-Day Weather Forecast

Advertisements
Track Severe Weather on mobile